sensor_id;sensor_type;location;lat;lon;timestamp;P1;durP1;ratioP1;P2;durP2;ratioP2
13805;SDS011;6974;53.606;9.872;2024-02-21T00:01:28;36.70;;;20.83;;
13805;SDS011;6974;53.606;9.872;2024-02-21T00:03:55;32.70;;;20.70;;
13805;SDS011;6974;53.606;9.872;2024-02-21T00:06:21;35.57;;;21.80;;
13805;SDS011;6974;53.606;9.872;2024-02-21T00:08:48;39.43;;;21.33;;
13805;SDS011;6974;53.606;9.872;2024-02-21T00:11:17;38.63;;;20.97;;
13805;SDS011;6974;53.606;9.872;2024-02-21T00:13:43;38.23;;;22.03;;
13805;SDS011;6974;53.606;9.872;2024-02-21T00:16:10;32.17;;;20.93;;
13805;SDS011;6974;53.606;9.872;2024-02-21T00:18:38;30.83;;;21.97;;
13805;SDS011;6974;53.606;9.872;2024-02-21T00:21:05;35.60;;;21.93;;
13805;SDS011;6974;53.606;9.872;2024-02-21T00:23:32;39.07;;;23.57;;
13805;SDS011;6974;53.606;9.872;2024-02-21T00:25:59;36.90;;;22.93;;
13805;SDS011;6974;53.606;9.872;2024-02-21T00:28:27;41.63;;;23.40;;
13805;SDS011;6974;53.606;9.872;2024-02-21T00:30:54;33.43;;;22.40;;
13805;SDS011;6974;53.606;9.872;2024-02-21T00:33:21;39.07;;;23.60;;
13805;SDS011;6974;53.606;9.872;2024-02-21T00:35:47;40.17;;;24.03;;
13805;SDS011;6974;53.606;9.872;2024-02-21T00:38:14;35.43;;;23.53;;
13805;SDS011;6974;53.606;9.872;2024-02-21T00:40:41;33.90;;;22.20;;
13805;SDS011;6974;53.606;9.872;2024-02-21T00:43:08;39.73;;;24.37;;
13805;SDS011;6974;53.606;9.872;2024-02-21T00:45:36;35.70;;;23.47;;
13805;SDS011;6974;53.606;9.872;2024-02-21T00:48:03;34.20;;;23.70;;
13805;SDS011;6974;53.606;9.872;2024-02-21T00:50:30;41.03;;;24.80;;
13805;SDS011;6974;53.606;9.872;2024-02-21T00:52:57;36.57;;;23.63;;
13805;SDS011;6974;53.606;9.872;2024-02-21T00:55:24;37.90;;;23.57;;
13805;SDS011;6974;53.606;9.872;2024-02-21T00:57:51;37.60;;;23.37;;
13805;SDS011;6974;53.606;9.872;2024-02-21T01:00:18;33.43;;;22.63;;
13805;SDS011;6974;53.606;9.872;2024-02-21T01:02:46;37.23;;;22.50;;
13805;SDS011;6974;53.606;9.872;2024-02-21T01:05:13;38.73;;;23.50;;
13805;SDS011;6974;53.606;9.872;2024-02-21T01:07:40;38.67;;;22.03;;
13805;SDS011;6974;53.606;9.872;2024-02-21T01:10:07;33.30;;;22.43;;
13805;SDS011;6974;53.606;9.872;2024-02-21T01:12:35;38.03;;;22.53;;
13805;SDS011;6974;53.606;9.872;2024-02-21T01:15:01;37.87;;;22.23;;
13805;SDS011;6974;53.606;9.872;2024-02-21T01:17:29;32.30;;;22.87;;
13805;SDS011;6974;53.606;9.872;2024-02-21T01:19:57;38.97;;;22.33;;
13805;SDS011;6974;53.606;9.872;2024-02-21T01:22:23;34.73;;;22.37;;
13805;SDS011;6974;53.606;9.872;2024-02-21T01:24:50;40.03;;;22.87;;
13805;SDS011;6974;53.606;9.872;2024-02-21T01:27:17;39.40;;;22.13;;
13805;SDS011;6974;53.606;9.872;2024-02-21T01:29:44;28.07;;;21.20;;
13805;SDS011;6974;53.606;9.872;2024-02-21T01:32:11;35.20;;;22.67;;
13805;SDS011;6974;53.606;9.872;2024-02-21T01:34:38;34.70;;;23.03;;
13805;SDS011;6974;53.606;9.872;2024-02-21T01:37:06;29.40;;;19.23;;
13805;SDS011;6974;53.606;9.872;2024-02-21T01:39:33;33.07;;;21.17;;
13805;SDS011;6974;53.606;9.872;2024-02-21T01:42:00;32.83;;;22.00;;
13805;SDS011;6974;53.606;9.872;2024-02-21T01:44:27;29.07;;;21.03;;
13805;SDS011;6974;53.606;9.872;2024-02-21T01:46:54;31.50;;;21.83;;
13805;SDS011;6974;53.606;9.872;2024-02-21T01:49:21;33.30;;;21.57;;
13805;SDS011;6974;53.606;9.872;2024-02-21T01:51:48;34.70;;;21.10;;
13805;SDS011;6974;53.606;9.872;2024-02-21T01:54:17;33.90;;;21.70;;
13805;SDS011;6974;53.606;9.872;2024-02-21T01:56:44;29.93;;;21.53;;
13805;SDS011;6974;53.606;9.872;2024-02-21T01:59:13;32.67;;;21.17;;
13805;SDS011;6974;53.606;9.872;2024-02-21T02:01:41;31.53;;;21.67;;
13805;SDS011;6974;53.606;9.872;2024-02-21T02:04:08;33.37;;;19.97;;
13805;SDS011;6974;53.606;9.872;2024-02-21T02:06:35;28.37;;;19.87;;
13805;SDS011;6974;53.606;9.872;2024-02-21T02:09:02;31.33;;;21.47;;
13805;SDS011;6974;53.606;9.872;2024-02-21T02:11:31;31.57;;;21.33;;
13805;SDS011;6974;53.606;9.872;2024-02-21T02:13:58;31.60;;;22.20;;
13805;SDS011;6974;53.606;9.872;2024-02-21T02:16:25;35.30;;;22.60;;
13805;SDS011;6974;53.606;9.872;2024-02-21T02:18:51;33.83;;;22.30;;
13805;SDS011;6974;53.606;9.872;2024-02-21T02:21:22;36.37;;;23.20;;
13805;SDS011;6974;53.606;9.872;2024-02-21T02:23:54;34.67;;;23.80;;
13805;SDS011;6974;53.606;9.872;2024-02-21T02:26:21;34.40;;;23.37;;
13805;SDS011;6974;53.606;9.872;2024-02-21T02:28:48;39.53;;;23.27;;
13805;SDS011;6974;53.606;9.872;2024-02-21T02:31:15;36.33;;;25.83;;
13805;SDS011;6974;53.606;9.872;2024-02-21T02:33:42;38.67;;;25.70;;
13805;SDS011;6974;53.606;9.872;2024-02-21T02:36:09;42.87;;;29.10;;
13805;SDS011;6974;53.606;9.872;2024-02-21T02:38:36;43.83;;;28.00;;
13805;SDS011;6974;53.606;9.872;2024-02-21T02:41:05;39.87;;;27.60;;
13805;SDS011;6974;53.606;9.872;2024-02-21T02:43:31;42.73;;;27.60;;
13805;SDS011;6974;53.606;9.872;2024-02-21T02:45:58;40.43;;;28.73;;
13805;SDS011;6974;53.606;9.872;2024-02-21T02:48:25;41.90;;;27.77;;
13805;SDS011;6974;53.606;9.872;2024-02-21T02:50:52;39.27;;;28.53;;
13805;SDS011;6974;53.606;9.872;2024-02-21T02:53:18;38.67;;;28.57;;
13805;SDS011;6974;53.606;9.872;2024-02-21T02:55:45;41.40;;;28.40;;
13805;SDS011;6974;53.606;9.872;2024-02-21T02:58:13;39.17;;;27.37;;
13805;SDS011;6974;53.606;9.872;2024-02-21T03:00:40;38.23;;;26.23;;
13805;SDS011;6974;53.606;9.872;2024-02-21T03:03:07;37.40;;;28.37;;
13805;SDS011;6974;53.606;9.872;2024-02-21T03:05:34;40.87;;;28.13;;
13805;SDS011;6974;53.606;9.872;2024-02-21T03:08:01;38.30;;;26.57;;
13805;SDS011;6974;53.606;9.872;2024-02-21T03:10:31;38.83;;;27.37;;
13805;SDS011;6974;53.606;9.872;2024-02-21T03:12:58;40.60;;;28.93;;
13805;SDS011;6974;53.606;9.872;2024-02-21T03:15:26;38.70;;;27.83;;
13805;SDS011;6974;53.606;9.872;2024-02-21T03:17:53;37.07;;;28.30;;
13805;SDS011;6974;53.606;9.872;2024-02-21T03:20:20;39.90;;;27.07;;
13805;SDS011;6974;53.606;9.872;2024-02-21T03:22:47;41.87;;;25.73;;
13805;SDS011;6974;53.606;9.872;2024-02-21T03:25:13;37.00;;;24.97;;
13805;SDS011;6974;53.606;9.872;2024-02-21T03:27:40;34.93;;;25.03;;
13805;SDS011;6974;53.606;9.872;2024-02-21T03:30:08;35.40;;;25.70;;
13805;SDS011;6974;53.606;9.872;2024-02-21T03:32:37;32.17;;;23.70;;
13805;SDS011;6974;53.606;9.872;2024-02-21T03:35:04;35.77;;;24.47;;
13805;SDS011;6974;53.606;9.872;2024-02-21T03:37:31;36.50;;;24.10;;
13805;SDS011;6974;53.606;9.872;2024-02-21T03:39:58;33.20;;;23.97;;
13805;SDS011;6974;53.606;9.872;2024-02-21T03:42:25;30.70;;;23.03;;
13805;SDS011;6974;53.606;9.872;2024-02-21T03:44:54;33.73;;;23.97;;
13805;SDS011;6974;53.606;9.872;2024-02-21T03:47:21;33.53;;;23.30;;
13805;SDS011;6974;53.606;9.872;2024-02-21T03:49:49;33.47;;;22.93;;
13805;SDS011;6974;53.606;9.872;2024-02-21T03:52:16;37.00;;;23.63;;
13805;SDS011;6974;53.606;9.872;2024-02-21T03:54:43;37.63;;;22.63;;
13805;SDS011;6974;53.606;9.872;2024-02-21T03:57:09;35.50;;;21.67;;
13805;SDS011;6974;53.606;9.872;2024-02-21T03:59:36;34.53;;;22.13;;
13805;SDS011;6974;53.606;9.872;2024-02-21T04:02:05;34.00;;;23.13;;
13805;SDS011;6974;53.606;9.872;2024-02-21T04:04:33;31.87;;;22.40;;
13805;SDS011;6974;53.606;9.872;2024-02-21T04:07:01;33.10;;;22.57;;
13805;SDS011;6974;53.606;9.872;2024-02-21T04:09:31;29.20;;;20.67;;
13805;SDS011;6974;53.606;9.872;2024-02-21T04:11:58;33.83;;;21.47;;
13805;SDS011;6974;53.606;9.872;2024-02-21T04:14:25;34.60;;;21.37;;
13805;SDS011;6974;53.606;9.872;2024-02-21T04:16:52;30.07;;;21.43;;
13805;SDS011;6974;53.606;9.872;2024-02-21T04:19:19;27.10;;;21.53;;
13805;SDS011;6974;53.606;9.872;2024-02-21T04:21:46;28.17;;;20.57;;
13805;SDS011;6974;53.606;9.872;2024-02-21T04:24:14;27.67;;;20.07;;
13805;SDS011;6974;53.606;9.872;2024-02-21T04:26:41;29.83;;;22.10;;
13805;SDS011;6974;53.606;9.872;2024-02-21T04:29:08;34.43;;;21.67;;
13805;SDS011;6974;53.606;9.872;2024-02-21T04:31:35;30.47;;;21.43;;
13805;SDS011;6974;53.606;9.872;2024-02-21T04:34:02;30.53;;;21.03;;
13805;SDS011;6974;53.606;9.872;2024-02-21T04:36:29;27.40;;;20.97;;
13805;SDS011;6974;53.606;9.872;2024-02-21T04:38:55;26.70;;;20.13;;
13805;SDS011;6974;53.606;9.872;2024-02-21T04:41:24;32.23;;;21.23;;
13805;SDS011;6974;53.606;9.872;2024-02-21T04:43:51;25.23;;;18.97;;
13805;SDS011;6974;53.606;9.872;2024-02-21T04:46:17;23.83;;;18.70;;
13805;SDS011;6974;53.606;9.872;2024-02-21T04:48:45;27.03;;;19.20;;
13805;SDS011;6974;53.606;9.872;2024-02-21T04:51:11;26.77;;;18.83;;
13805;SDS011;6974;53.606;9.872;2024-02-21T04:53:39;21.73;;;16.87;;
13805;SDS011;6974;53.606;9.872;2024-02-21T04:56:06;21.17;;;17.67;;
13805;SDS011;6974;53.606;9.872;2024-02-21T04:58:37;20.87;;;16.60;;
13805;SDS011;6974;53.606;9.872;2024-02-21T05:01:04;21.77;;;17.33;;
13805;SDS011;6974;53.606;9.872;2024-02-21T05:03:31;19.97;;;15.87;;
13805;SDS011;6974;53.606;9.872;2024-02-21T05:05:58;21.60;;;15.80;;
13805;SDS011;6974;53.606;9.872;2024-02-21T05:08:25;20.33;;;15.90;;
13805;SDS011;6974;53.606;9.872;2024-02-21T05:10:52;18.50;;;15.30;;
13805;SDS011;6974;53.606;9.872;2024-02-21T05:13:19;20.73;;;16.47;;
13805;SDS011;6974;53.606;9.872;2024-02-21T05:15:47;19.17;;;15.20;;
13805;SDS011;6974;53.606;9.872;2024-02-21T05:18:14;18.33;;;14.77;;
13805;SDS011;6974;53.606;9.872;2024-02-21T05:20:41;17.33;;;14.37;;
13805;SDS011;6974;53.606;9.872;2024-02-21T05:23:08;16.33;;;14.63;;
13805;SDS011;6974;53.606;9.872;2024-02-21T05:25:34;16.87;;;14.00;;
13805;SDS011;6974;53.606;9.872;2024-02-21T05:28:01;15.70;;;13.60;;
13805;SDS011;6974;53.606;9.872;2024-02-21T05:30:30;16.87;;;13.63;;
13805;SDS011;6974;53.606;9.872;2024-02-21T05:32:58;16.53;;;13.47;;
13805;SDS011;6974;53.606;9.872;2024-02-21T05:35:29;18.50;;;14.13;;
13805;SDS011;6974;53.606;9.872;2024-02-21T05:37:56;17.50;;;14.07;;
13805;SDS011;6974;53.606;9.872;2024-02-21T05:40:24;16.40;;;12.80;;
13805;SDS011;6974;53.606;9.872;2024-02-21T05:42:51;17.33;;;13.67;;
13805;SDS011;6974;53.606;9.872;2024-02-21T05:45:18;13.80;;;11.97;;
13805;SDS011;6974;53.606;9.872;2024-02-21T05:47:45;15.70;;;12.83;;
13805;SDS011;6974;53.606;9.872;2024-02-21T05:50:13;15.00;;;12.23;;
13805;SDS011;6974;53.606;9.872;2024-02-21T05:52:40;13.67;;;11.27;;
13805;SDS011;6974;53.606;9.872;2024-02-21T05:55:08;16.87;;;12.53;;
13805;SDS011;6974;53.606;9.872;2024-02-21T05:57:35;12.33;;;10.97;;
13805;SDS011;6974;53.606;9.872;2024-02-21T06:00:03;13.40;;;10.07;;
13805;SDS011;6974;53.606;9.872;2024-02-21T06:02:31;11.80;;;10.40;;
13805;SDS011;6974;53.606;9.872;2024-02-21T06:04:58;10.47;;;9.33;;
13805;SDS011;6974;53.606;9.872;2024-02-21T06:07:26;10.80;;;8.70;;
13805;SDS011;6974;53.606;9.872;2024-02-21T06:09:53;9.33;;;8.07;;
13805;SDS011;6974;53.606;9.872;2024-02-21T06:12:20;8.33;;;7.53;;
13805;SDS011;6974;53.606;9.872;2024-02-21T06:14:46;10.00;;;7.47;;
13805;SDS011;6974;53.606;9.872;2024-02-21T06:17:14;8.30;;;6.87;;
13805;SDS011;6974;53.606;9.872;2024-02-21T06:19:42;7.23;;;6.37;;
13805;SDS011;6974;53.606;9.872;2024-02-21T06:22:09;6.53;;;5.90;;
13805;SDS011;6974;53.606;9.872;2024-02-21T06:24:37;9.13;;;6.30;;
13805;SDS011;6974;53.606;9.872;2024-02-21T06:27:04;7.23;;;5.60;;
13805;SDS011;6974;53.606;9.872;2024-02-21T06:35:31;7.57;;;6.87;;
13805;SDS011;6974;53.606;9.872;2024-02-21T06:38:12;6.97;;;6.03;;
13805;SDS011;6974;53.606;9.872;2024-02-21T06:40:42;6.80;;;6.13;;
13805;SDS011;6974;53.606;9.872;2024-02-21T06:43:14;6.23;;;5.63;;
13805;SDS011;6974;53.606;9.872;2024-02-21T06:45:41;7.10;;;6.13;;
13805;SDS011;6974;53.606;9.872;2024-02-21T06:48:08;7.30;;;6.33;;
13805;SDS011;6974;53.606;9.872;2024-02-21T06:50:35;6.17;;;5.57;;
13805;SDS011;6974;53.606;9.872;2024-02-21T06:53:02;5.97;;;5.37;;
13805;SDS011;6974;53.606;9.872;2024-02-21T06:55:29;5.67;;;5.07;;
13805;SDS011;6974;53.606;9.872;2024-02-21T06:57:58;5.97;;;5.37;;
13805;SDS011;6974;53.606;9.872;2024-02-21T07:00:25;6.07;;;5.37;;
13805;SDS011;6974;53.606;9.872;2024-02-21T07:02:52;7.33;;;5.80;;
13805;SDS011;6974;53.606;9.872;2024-02-21T07:05:19;7.47;;;6.23;;
13805;SDS011;6974;53.606;9.872;2024-02-21T07:07:45;6.03;;;5.43;;
13805;SDS011;6974;53.606;9.872;2024-02-21T07:10:12;6.13;;;5.53;;
13805;SDS011;6974;53.606;9.872;2024-02-21T07:12:39;5.53;;;5.00;;
13805;SDS011;6974;53.606;9.872;2024-02-21T07:15:09;5.73;;;5.07;;
13805;SDS011;6974;53.606;9.872;2024-02-21T07:17:36;7.43;;;5.17;;
13805;SDS011;6974;53.606;9.872;2024-02-21T07:20:03;5.63;;;5.00;;
13805;SDS011;6974;53.606;9.872;2024-02-21T07:22:31;6.07;;;5.23;;
13805;SDS011;6974;53.606;9.872;2024-02-21T07:24:58;7.60;;;6.07;;
13805;SDS011;6974;53.606;9.872;2024-02-21T07:27:25;6.60;;;5.90;;
13805;SDS011;6974;53.606;9.872;2024-02-21T07:29:55;7.20;;;5.73;;
13805;SDS011;6974;53.606;9.872;2024-02-21T07:32:24;6.13;;;5.47;;
13805;SDS011;6974;53.606;9.872;2024-02-21T07:34:51;7.33;;;6.20;;
13805;SDS011;6974;53.606;9.872;2024-02-21T07:37:18;7.37;;;6.50;;
13805;SDS011;6974;53.606;9.872;2024-02-21T07:39:44;6.73;;;5.90;;
13805;SDS011;6974;53.606;9.872;2024-02-21T07:42:11;6.90;;;6.20;;
13805;SDS011;6974;53.606;9.872;2024-02-21T07:44:38;6.77;;;5.40;;
13805;SDS011;6974;53.606;9.872;2024-02-21T07:47:05;8.50;;;6.97;;
13805;SDS011;6974;53.606;9.872;2024-02-21T07:49:40;9.30;;;5.67;;
13805;SDS011;6974;53.606;9.872;2024-02-21T07:52:07;7.70;;;5.27;;
13805;SDS011;6974;53.606;9.872;2024-02-21T07:54:34;6.47;;;5.07;;
13805;SDS011;6974;53.606;9.872;2024-02-21T07:57:01;13.73;;;4.93;;
13805;SDS011;6974;53.606;9.872;2024-02-21T07:59:28;9.87;;;5.10;;
13805;SDS011;6974;53.606;9.872;2024-02-21T08:01:56;11.33;;;5.30;;
13805;SDS011;6974;53.606;9.872;2024-02-21T08:04:23;10.93;;;4.93;;
13805;SDS011;6974;53.606;9.872;2024-02-21T08:06:52;13.20;;;5.20;;
13805;SDS011;6974;53.606;9.872;2024-02-21T08:09:20;9.73;;;4.23;;
13805;SDS011;6974;53.606;9.872;2024-02-21T08:11:48;18.87;;;5.17;;
13805;SDS011;6974;53.606;9.872;2024-02-21T08:14:15;15.93;;;4.40;;
13805;SDS011;6974;53.606;9.872;2024-02-21T08:16:43;11.63;;;4.27;;
13805;SDS011;6974;53.606;9.872;2024-02-21T08:19:10;15.50;;;4.80;;
13805;SDS011;6974;53.606;9.872;2024-02-21T08:21:37;12.70;;;4.97;;
13805;SDS011;6974;53.606;9.872;2024-02-21T08:24:06;10.67;;;4.63;;
13805;SDS011;6974;53.606;9.872;2024-02-21T08:26:33;12.37;;;4.40;;
13805;SDS011;6974;53.606;9.872;2024-02-21T08:29:01;10.23;;;4.23;;
13805;SDS011;6974;53.606;9.872;2024-02-21T08:31:28;13.03;;;4.33;;
13805;SDS011;6974;53.606;9.872;2024-02-21T08:33:57;13.27;;;4.63;;
13805;SDS011;6974;53.606;9.872;2024-02-21T08:36:27;16.10;;;4.83;;
13805;SDS011;6974;53.606;9.872;2024-02-21T08:38:56;9.13;;;4.50;;
13805;SDS011;6974;53.606;9.872;2024-02-21T08:41:24;12.10;;;4.40;;
13805;SDS011;6974;53.606;9.872;2024-02-21T08:43:52;14.10;;;5.20;;
13805;SDS011;6974;53.606;9.872;2024-02-21T08:46:20;14.37;;;5.00;;
13805;SDS011;6974;53.606;9.872;2024-02-21T08:48:49;14.83;;;5.13;;
13805;SDS011;6974;53.606;9.872;2024-02-21T08:51:19;14.13;;;4.77;;
13805;SDS011;6974;53.606;9.872;2024-02-21T08:53:47;12.03;;;4.43;;
13805;SDS011;6974;53.606;9.872;2024-02-21T08:56:14;15.30;;;4.70;;
13805;SDS011;6974;53.606;9.872;2024-02-21T08:58:45;12.83;;;4.37;;
13805;SDS011;6974;53.606;9.872;2024-02-21T09:01:12;13.27;;;4.80;;
13805;SDS011;6974;53.606;9.872;2024-02-21T09:03:40;13.33;;;4.47;;
13805;SDS011;6974;53.606;9.872;2024-02-21T09:06:07;15.70;;;4.67;;
13805;SDS011;6974;53.606;9.872;2024-02-21T09:08:35;13.10;;;4.90;;
13805;SDS011;6974;53.606;9.872;2024-02-21T09:11:03;13.93;;;5.13;;
13805;SDS011;6974;53.606;9.872;2024-02-21T09:13:32;10.43;;;4.27;;
13805;SDS011;6974;53.606;9.872;2024-02-21T09:16:01;13.60;;;4.77;;
13805;SDS011;6974;53.606;9.872;2024-02-21T09:18:28;13.83;;;5.03;;
13805;SDS011;6974;53.606;9.872;2024-02-21T09:20:55;13.83;;;4.60;;
13805;SDS011;6974;53.606;9.872;2024-02-21T09:23:23;11.50;;;3.70;;
13805;SDS011;6974;53.606;9.872;2024-02-21T09:25:51;12.13;;;3.43;;
13805;SDS011;6974;53.606;9.872;2024-02-21T09:28:20;13.43;;;3.90;;
13805;SDS011;6974;53.606;9.872;2024-02-21T09:30:47;14.47;;;4.23;;
13805;SDS011;6974;53.606;9.872;2024-02-21T09:33:16;11.87;;;3.53;;
13805;SDS011;6974;53.606;9.872;2024-02-21T09:35:43;9.27;;;3.43;;
13805;SDS011;6974;53.606;9.872;2024-02-21T09:38:10;7.77;;;3.20;;
13805;SDS011;6974;53.606;9.872;2024-02-21T09:40:37;9.37;;;3.20;;
13805;SDS011;6974;53.606;9.872;2024-02-21T09:43:07;11.67;;;3.33;;
13805;SDS011;6974;53.606;9.872;2024-02-21T09:45:34;9.73;;;3.53;;
13805;SDS011;6974;53.606;9.872;2024-02-21T09:50:57;8.50;;;3.43;;
13805;SDS011;6974;53.606;9.872;2024-02-21T09:53:25;8.27;;;3.53;;
13805;SDS011;6974;53.606;9.872;2024-02-21T09:55:54;8.40;;;3.63;;
13805;SDS011;6974;53.606;9.872;2024-02-21T09:58:22;9.83;;;3.63;;
13805;SDS011;6974;53.606;9.872;2024-02-21T10:00:52;7.10;;;3.43;;
13805;SDS011;6974;53.606;9.872;2024-02-21T10:03:23;9.87;;;3.97;;
13805;SDS011;6974;53.606;9.872;2024-02-21T10:05:52;5.33;;;3.17;;
13805;SDS011;6974;53.606;9.872;2024-02-21T10:08:19;5.17;;;3.33;;
13805;SDS011;6974;53.606;9.872;2024-02-21T10:10:47;4.77;;;3.70;;
13805;SDS011;6974;53.606;9.872;2024-02-21T10:13:24;6.27;;;3.97;;
13805;SDS011;6974;53.606;9.872;2024-02-21T10:16:05;5.80;;;4.90;;
13805;SDS011;6974;53.606;9.872;2024-02-21T10:18:33;7.10;;;5.60;;
13805;SDS011;6974;53.606;9.872;2024-02-21T10:21:04;5.90;;;5.30;;
13805;SDS011;6974;53.606;9.872;2024-02-21T10:23:40;6.80;;;6.10;;
13805;SDS011;6974;53.606;9.872;2024-02-21T10:26:09;9.60;;;8.00;;
13805;SDS011;6974;53.606;9.872;2024-02-21T10:28:36;8.17;;;6.77;;
13805;SDS011;6974;53.606;9.872;2024-02-21T10:31:07;10.53;;;9.27;;
13805;SDS011;6974;53.606;9.872;2024-02-21T10:33:36;14.10;;;10.27;;
13805;SDS011;6974;53.606;9.872;2024-02-21T10:36:08;13.67;;;12.20;;
13805;SDS011;6974;53.606;9.872;2024-02-21T10:38:36;13.53;;;11.23;;
13805;SDS011;6974;53.606;9.872;2024-02-21T10:41:04;15.27;;;13.27;;
13805;SDS011;6974;53.606;9.872;2024-02-21T10:43:36;17.63;;;13.50;;
13805;SDS011;6974;53.606;9.872;2024-02-21T10:46:06;19.70;;;16.10;;
13805;SDS011;6974;53.606;9.872;2024-02-21T10:48:39;26.60;;;19.23;;
13805;SDS011;6974;53.606;9.872;2024-02-21T10:51:15;24.03;;;18.80;;
13805;SDS011;6974;53.606;9.872;2024-02-21T10:53:47;24.80;;;20.27;;
13805;SDS011;6974;53.606;9.872;2024-02-21T10:56:26;26.43;;;21.80;;
13805;SDS011;6974;53.606;9.872;2024-02-21T10:58:55;28.43;;;21.93;;
13805;SDS011;6974;53.606;9.872;2024-02-21T11:01:24;28.17;;;22.03;;
13805;SDS011;6974;53.606;9.872;2024-02-21T11:03:54;27.23;;;23.03;;
13805;SDS011;6974;53.606;9.872;2024-02-21T11:06:24;33.53;;;24.40;;
13805;SDS011;6974;53.606;9.872;2024-02-21T11:09:02;30.93;;;23.20;;
13805;SDS011;6974;53.606;9.872;2024-02-21T11:11:30;31.70;;;23.20;;
13805;SDS011;6974;53.606;9.872;2024-02-21T11:14:06;31.00;;;24.00;;
13805;SDS011;6974;53.606;9.872;2024-02-21T11:16:37;29.33;;;23.70;;
13805;SDS011;6974;53.606;9.872;2024-02-21T11:19:05;25.77;;;22.40;;
13805;SDS011;6974;53.606;9.872;2024-02-21T11:21:35;30.87;;;22.93;;
13805;SDS011;6974;53.606;9.872;2024-02-21T11:24:04;28.77;;;23.67;;
13805;SDS011;6974;53.606;9.872;2024-02-21T11:26:32;32.07;;;22.97;;
13805;SDS011;6974;53.606;9.872;2024-02-21T11:28:59;28.07;;;21.33;;
13805;SDS011;6974;53.606;9.872;2024-02-21T11:31:37;24.87;;;21.00;;
13805;SDS011;6974;53.606;9.872;2024-02-21T11:34:08;24.73;;;20.37;;
13805;SDS011;6974;53.606;9.872;2024-02-21T11:39:28;29.80;;;18.33;;
13805;SDS011;6974;53.606;9.872;2024-02-21T11:42:01;25.87;;;19.60;;
13805;SDS011;6974;53.606;9.872;2024-02-21T11:44:45;24.80;;;18.00;;
13805;SDS011;6974;53.606;9.872;2024-02-21T11:47:13;22.90;;;17.17;;
13805;SDS011;6974;53.606;9.872;2024-02-21T11:49:43;18.70;;;14.47;;
13805;SDS011;6974;53.606;9.872;2024-02-21T11:52:13;15.53;;;13.40;;
13805;SDS011;6974;53.606;9.872;2024-02-21T11:54:40;16.50;;;13.33;;
13805;SDS011;6974;53.606;9.872;2024-02-21T11:57:07;17.83;;;12.43;;
13805;SDS011;6974;53.606;9.872;2024-02-21T11:59:34;20.73;;;13.77;;
13805;SDS011;6974;53.606;9.872;2024-02-21T12:02:01;16.23;;;13.07;;
13805;SDS011;6974;53.606;9.872;2024-02-21T12:04:29;18.13;;;13.10;;
13805;SDS011;6974;53.606;9.872;2024-02-21T12:06:57;16.47;;;12.17;;
13805;SDS011;6974;53.606;9.872;2024-02-21T12:09:26;18.70;;;13.70;;
13805;SDS011;6974;53.606;9.872;2024-02-21T12:11:59;22.23;;;14.60;;
13805;SDS011;6974;53.606;9.872;2024-02-21T12:14:27;20.37;;;14.40;;
13805;SDS011;6974;53.606;9.872;2024-02-21T12:16:55;18.00;;;13.70;;
13805;SDS011;6974;53.606;9.872;2024-02-21T12:19:22;15.67;;;12.30;;
13805;SDS011;6974;53.606;9.872;2024-02-21T12:21:49;20.00;;;13.43;;
13805;SDS011;6974;53.606;9.872;2024-02-21T12:24:17;18.90;;;13.23;;
13805;SDS011;6974;53.606;9.872;2024-02-21T12:26:49;18.33;;;14.57;;
13805;SDS011;6974;53.606;9.872;2024-02-21T12:29:17;19.13;;;13.40;;
13805;SDS011;6974;53.606;9.872;2024-02-21T12:31:44;18.40;;;13.80;;
13805;SDS011;6974;53.606;9.872;2024-02-21T12:34:11;18.53;;;13.60;;
13805;SDS011;6974;53.606;9.872;2024-02-21T12:36:40;14.67;;;12.53;;
13805;SDS011;6974;53.606;9.872;2024-02-21T12:39:08;17.13;;;13.60;;
13805;SDS011;6974;53.606;9.872;2024-02-21T12:41:35;21.40;;;13.97;;
13805;SDS011;6974;53.606;9.872;2024-02-21T12:44:04;17.50;;;13.10;;
13805;SDS011;6974;53.606;9.872;2024-02-21T12:46:32;22.57;;;14.00;;
13805;SDS011;6974;53.606;9.872;2024-02-21T12:48:59;21.37;;;13.93;;
13805;SDS011;6974;53.606;9.872;2024-02-21T12:51:25;16.70;;;13.97;;
13805;SDS011;6974;53.606;9.872;2024-02-21T12:53:52;19.40;;;13.57;;
13805;SDS011;6974;53.606;9.872;2024-02-21T12:56:19;20.30;;;14.17;;
13805;SDS011;6974;53.606;9.872;2024-02-21T12:58:46;23.40;;;14.90;;
13805;SDS011;6974;53.606;9.872;2024-02-21T13:01:14;20.13;;;14.27;;
13805;SDS011;6974;53.606;9.872;2024-02-21T13:03:41;19.90;;;13.87;;
13805;SDS011;6974;53.606;9.872;2024-02-21T13:06:08;24.67;;;14.57;;
13805;SDS011;6974;53.606;9.872;2024-02-21T13:08:35;23.23;;;15.33;;
13805;SDS011;6974;53.606;9.872;2024-02-21T13:11:02;18.97;;;13.83;;
13805;SDS011;6974;53.606;9.872;2024-02-21T13:13:30;21.47;;;14.80;;
13805;SDS011;6974;53.606;9.872;2024-02-21T13:15:57;20.60;;;13.43;;
13805;SDS011;6974;53.606;9.872;2024-02-21T13:18:25;21.73;;;14.60;;
13805;SDS011;6974;53.606;9.872;2024-02-21T13:20:52;20.43;;;15.27;;
13805;SDS011;6974;53.606;9.872;2024-02-21T13:23:19;19.43;;;15.03;;
13805;SDS011;6974;53.606;9.872;2024-02-21T13:25:46;22.80;;;14.90;;
13805;SDS011;6974;53.606;9.872;2024-02-21T13:28:14;18.13;;;14.23;;
13805;SDS011;6974;53.606;9.872;2024-02-21T13:30:41;21.20;;;15.30;;
13805;SDS011;6974;53.606;9.872;2024-02-21T13:33:08;23.07;;;15.17;;
13805;SDS011;6974;53.606;9.872;2024-02-21T13:35:37;19.03;;;14.50;;
13805;SDS011;6974;53.606;9.872;2024-02-21T13:38:04;19.77;;;14.40;;
13805;SDS011;6974;53.606;9.872;2024-02-21T13:40:30;19.97;;;14.07;;
13805;SDS011;6974;53.606;9.872;2024-02-21T13:42:57;26.10;;;14.50;;
13805;SDS011;6974;53.606;9.872;2024-02-21T13:45:24;16.80;;;13.93;;
13805;SDS011;6974;53.606;9.872;2024-02-21T13:47:50;17.43;;;13.40;;
13805;SDS011;6974;53.606;9.872;2024-02-21T13:50:16;25.03;;;14.20;;
13805;SDS011;6974;53.606;9.872;2024-02-21T13:52:46;26.63;;;19.43;;
13805;SDS011;6974;53.606;9.872;2024-02-21T13:55:12;20.73;;;14.07;;
13805;SDS011;6974;53.606;9.872;2024-02-21T13:57:39;20.07;;;14.40;;
13805;SDS011;6974;53.606;9.872;2024-02-21T14:00:07;19.70;;;14.53;;
13805;SDS011;6974;53.606;9.872;2024-02-21T14:02:35;18.50;;;13.33;;
13805;SDS011;6974;53.606;9.872;2024-02-21T14:05:02;17.90;;;13.37;;
13805;SDS011;6974;53.606;9.872;2024-02-21T14:07:31;20.37;;;13.67;;
13805;SDS011;6974;53.606;9.872;2024-02-21T14:09:59;17.77;;;13.73;;
13805;SDS011;6974;53.606;9.872;2024-02-21T14:12:26;19.87;;;14.77;;
13805;SDS011;6974;53.606;9.872;2024-02-21T14:14:53;20.20;;;13.27;;
13805;SDS011;6974;53.606;9.872;2024-02-21T14:17:22;17.27;;;12.40;;
13805;SDS011;6974;53.606;9.872;2024-02-21T14:19:49;18.43;;;12.43;;
13805;SDS011;6974;53.606;9.872;2024-02-21T14:22:16;20.93;;;12.73;;
13805;SDS011;6974;53.606;9.872;2024-02-21T14:24:43;17.73;;;12.20;;
13805;SDS011;6974;53.606;9.872;2024-02-21T14:27:13;16.77;;;12.73;;
13805;SDS011;6974;53.606;9.872;2024-02-21T14:29:40;14.90;;;11.93;;
13805;SDS011;6974;53.606;9.872;2024-02-21T14:32:06;20.90;;;12.00;;
13805;SDS011;6974;53.606;9.872;2024-02-21T14:34:35;17.37;;;11.50;;
13805;SDS011;6974;53.606;9.872;2024-02-21T14:37:01;18.37;;;11.43;;
13805;SDS011;6974;53.606;9.872;2024-02-21T14:39:29;17.20;;;11.07;;
13805;SDS011;6974;53.606;9.872;2024-02-21T14:41:57;15.53;;;11.00;;
13805;SDS011;6974;53.606;9.872;2024-02-21T14:44:26;14.10;;;10.20;;
13805;SDS011;6974;53.606;9.872;2024-02-21T14:46:53;15.60;;;10.40;;
13805;SDS011;6974;53.606;9.872;2024-02-21T14:49:20;14.27;;;9.53;;
13805;SDS011;6974;53.606;9.872;2024-02-21T14:51:47;14.47;;;9.27;;
13805;SDS011;6974;53.606;9.872;2024-02-21T14:54:14;14.30;;;9.50;;
13805;SDS011;6974;53.606;9.872;2024-02-21T14:56:40;13.00;;;8.77;;